createdAt,value
2022-10-23T00:00:12.538Z,16.5
2022-10-23T00:02:11.698Z,16.8
2022-10-23T00:04:13.758Z,16.8
2022-10-23T00:06:13.318Z,16.8
2022-10-23T00:08:11.815Z,16.1
2022-10-23T00:10:11.627Z,16.9
2022-10-23T00:12:11.769Z,16.5
2022-10-23T00:14:11.851Z,17.2
2022-10-23T00:16:12.215Z,16.4
2022-10-23T00:18:11.862Z,17.2
2022-10-23T00:20:13.842Z,17.2
2022-10-23T00:22:11.853Z,17.7
2022-10-23T00:24:11.932Z,16.7
2022-10-23T00:26:12.910Z,17.3
2022-10-23T00:28:12.003Z,16.9
2022-10-23T00:30:12.698Z,16.9
2022-10-23T00:32:11.987Z,17.6
2022-10-23T00:34:12.309Z,17.5
2022-10-23T00:36:16.909Z,17.9
2022-10-23T00:38:12.320Z,17.6
2022-10-23T00:40:12.702Z,17.4
2022-10-23T00:42:17.039Z,17.4
2022-10-23T00:44:41.647Z,17
2022-10-23T00:46:12.123Z,17.2
2022-10-23T00:48:12.895Z,17.6
2022-10-23T00:50:12.251Z,17.5
2022-10-23T00:52:13.352Z,18.2
2022-10-23T00:54:24.752Z,17.3
2022-10-23T00:56:12.232Z,16.8
2022-10-23T00:58:12.959Z,18
2022-10-23T01:00:28.506Z,17.9
2022-10-23T01:02:12.445Z,17.3
2022-10-23T01:04:15.012Z,17.2
2022-10-23T01:06:21.895Z,17.3
2022-10-23T01:08:22.187Z,17.3
2022-10-23T01:10:19.326Z,18
2022-10-23T01:12:23.578Z,18.5
2022-10-23T01:14:24.024Z,18
2022-10-23T01:16:18.624Z,17.6
2022-10-23T01:18:21.449Z,17.9
2022-10-23T01:20:28.725Z,17.2
2022-10-23T01:22:28.373Z,18.6
2022-10-23T01:24:25.230Z,17.5
2022-10-23T01:26:28.733Z,18
2022-10-23T01:28:21.455Z,18.5
2022-10-23T01:30:18.479Z,17.7
2022-10-23T01:32:19.266Z,17.5
2022-10-23T01:34:17.557Z,18.6
2022-10-23T01:36:16.343Z,18.1
2022-10-23T01:38:19.150Z,17.7
2022-10-23T01:40:21.042Z,18.1
2022-10-23T01:42:17.915Z,18.1
2022-10-23T01:44:20.896Z,17.6
2022-10-23T01:46:16.753Z,17.2
2022-10-23T01:48:18.661Z,17.6
2022-10-23T01:50:17.845Z,18.5
2022-10-23T01:52:17.339Z,18.2
2022-10-23T01:54:16.312Z,16.9
2022-10-23T01:56:16.835Z,17.5
2022-10-23T01:58:15.200Z,16.4
2022-10-23T02:00:31.301Z,17
2022-10-23T02:02:16.514Z,17.1
2022-10-23T02:04:17.743Z,17.4
2022-10-23T02:06:13.049Z,17
2022-10-23T02:08:14.799Z,17.4
2022-10-23T02:10:14.902Z,17.7
2022-10-23T02:12:22.484Z,18
2022-10-23T02:14:19.987Z,17.6
2022-10-23T02:16:22.124Z,17.4
2022-10-23T02:18:23.059Z,16.4
2022-10-23T02:20:19.486Z,17.5
2022-10-23T02:22:20.176Z,16.6
2022-10-23T02:24:18.485Z,16.3
2022-10-23T02:26:20.395Z,16.8
2022-10-23T02:28:19.583Z,15.7
2022-10-23T02:30:16.521Z,17
2022-10-23T02:32:14.860Z,16.1
2022-10-23T02:34:13.020Z,16.4
2022-10-23T02:36:13.728Z,16.2
2022-10-23T02:38:30.826Z,16.1
2022-10-23T02:40:19.068Z,16.1
2022-10-23T02:42:19.026Z,15.9
2022-10-23T02:44:25.374Z,16.3
2022-10-23T02:46:22.161Z,15.4
2022-10-23T02:48:20.626Z,15.8
2022-10-23T02:50:21.543Z,15.5
2022-10-23T02:52:20.749Z,16.4
2022-10-23T02:54:20.082Z,16.9
2022-10-23T02:56:22.454Z,18.1
2022-10-23T02:58:25.971Z,17.8
2022-10-23T03:00:16.599Z,18.6
2022-10-23T03:02:21.240Z,19.5
2022-10-23T03:04:14.249Z,19.7
2022-10-23T03:06:13.274Z,18.9
2022-10-23T03:08:14.575Z,18.1
2022-10-23T03:10:13.744Z,18.1
2022-10-23T03:12:13.141Z,17.5
2022-10-23T03:14:13.797Z,17.2
2022-10-23T03:16:13.468Z,17.4
2022-10-23T03:18:13.790Z,16.2
2022-10-23T03:20:13.181Z,16.2
2022-10-23T03:22:13.148Z,15.8
2022-10-23T03:24:15.776Z,16.2
2022-10-23T03:26:15.801Z,16
2022-10-23T03:28:13.318Z,14.8
2022-10-23T03:30:13.639Z,14.6
2022-10-23T03:32:13.272Z,15.7
2022-10-23T03:34:14.068Z,16.7
2022-10-23T03:36:13.921Z,19.6
2022-10-23T03:38:13.312Z,20.2
2022-10-23T03:40:13.289Z,21.7
2022-10-23T03:42:13.501Z,21.5
2022-10-23T03:44:17.615Z,20
2022-10-23T03:46:13.323Z,19.7
2022-10-23T03:48:13.412Z,17.4
2022-10-23T03:50:13.530Z,17.2
2022-10-23T03:52:13.472Z,18.2
2022-10-23T03:54:13.622Z,18.2
2022-10-23T03:56:13.527Z,18.3
2022-10-23T03:58:13.430Z,18.3
2022-10-23T04:00:17.248Z,18
2022-10-23T04:02:13.591Z,17.9
2022-10-23T04:04:14.703Z,17.2
2022-10-23T04:06:13.613Z,15.5
2022-10-23T04:08:17.616Z,15.4
2022-10-23T04:10:13.497Z,15.8
2022-10-23T04:12:13.566Z,15.6
2022-10-23T04:14:13.589Z,14.1
2022-10-23T04:16:13.662Z,14.6
2022-10-23T04:18:13.568Z,13.7
2022-10-23T04:20:13.554Z,14.2
2022-10-23T04:22:13.660Z,13.4
2022-10-23T04:24:13.732Z,14.5
2022-10-23T04:26:13.673Z,14.8
2022-10-23T04:28:14.808Z,15.2
2022-10-23T04:30:13.760Z,15.2
2022-10-23T04:32:13.646Z,14.1
2022-10-23T04:34:13.663Z,15
2022-10-23T04:36:14.189Z,15.4
2022-10-23T04:38:13.751Z,15.3
2022-10-23T04:40:13.755Z,15.6
2022-10-23T04:42:14.571Z,15.3
2022-10-23T04:44:13.749Z,16.1
2022-10-23T04:46:13.710Z,15.8
2022-10-23T04:48:31.655Z,15.2
2022-10-23T04:50:30.029Z,15.4
2022-10-23T04:52:29.092Z,15.4
2022-10-23T04:54:16.999Z,15.5
2022-10-23T04:56:24.835Z,15.1
2022-10-23T04:58:14.980Z,15.6
2022-10-23T05:00:21.585Z,15.6
2022-10-23T05:02:14.816Z,15.2
2022-10-23T05:04:28.681Z,15.6
2022-10-23T05:06:17.052Z,16.1
2022-10-23T05:08:25.810Z,16.1
2022-10-23T05:10:24.624Z,16.6
2022-10-23T05:12:14.464Z,17.1
2022-10-23T05:14:14.016Z,16.3
2022-10-23T05:16:26.856Z,15.9
2022-10-23T05:18:19.752Z,15.1
2022-10-23T05:20:17.195Z,15.3
2022-10-23T05:22:25.295Z,15.1
2022-10-23T05:24:21.207Z,15.2
2022-10-23T05:26:15.960Z,15.6
2022-10-23T05:28:14.588Z,15.6
2022-10-23T05:30:16.209Z,15.2
2022-10-23T05:32:17.156Z,15.4
2022-10-23T05:34:18.200Z,15.4
2022-10-23T05:36:16.527Z,15
2022-10-23T05:38:15.339Z,15
2022-10-23T05:40:15.427Z,15.6
2022-10-23T05:42:15.125Z,14.4
2022-10-23T05:44:28.864Z,14.3
2022-10-23T05:46:20.840Z,14.2
2022-10-23T05:48:34.535Z,14.3
2022-10-23T05:50:29.144Z,14.5
2022-10-23T05:52:23.468Z,14.6
2022-10-23T05:54:21.793Z,15
2022-10-23T05:56:19.996Z,14.9
2022-10-23T05:58:31.970Z,14.3
2022-10-23T06:00:14.065Z,14.4
2022-10-23T06:02:28.917Z,13.6
2022-10-23T06:04:29.241Z,13.3
2022-10-23T06:06:19.555Z,13.9
2022-10-23T06:08:14.546Z,12.4
2022-10-23T06:10:17.289Z,13.2
2022-10-23T06:12:14.199Z,13.2
2022-10-23T06:14:15.133Z,13.4
2022-10-23T06:16:16.057Z,13.5
2022-10-23T06:18:23.979Z,12.9
2022-10-23T06:20:15.031Z,12.9
2022-10-23T06:22:21.133Z,13.7
2022-10-23T06:24:18.391Z,12.6
2022-10-23T06:26:29.319Z,12.7
2022-10-23T06:28:17.008Z,13.2
2022-10-23T06:30:14.402Z,13.1
2022-10-23T06:32:15.211Z,13.5
2022-10-23T06:34:14.935Z,14
2022-10-23T06:36:14.978Z,13.8
2022-10-23T06:38:20.426Z,13.6
2022-10-23T06:40:29.379Z,14
2022-10-23T06:42:30.356Z,14.8
2022-10-23T06:44:20.465Z,14.1
2022-10-23T06:46:29.706Z,15
2022-10-23T06:48:29.889Z,14.8
2022-10-23T06:50:15.676Z,14.2
2022-10-23T06:52:41.705Z,14.9
2022-10-23T06:54:30.662Z,15.5
2022-10-23T06:56:15.145Z,14.4
2022-10-23T06:58:28.452Z,14.7
2022-10-23T07:00:22.144Z,14.2
2022-10-23T07:02:15.584Z,14.1
2022-10-23T07:04:14.991Z,14
2022-10-23T07:06:15.336Z,14.2
2022-10-23T07:08:15.849Z,14
2022-10-23T07:10:16.777Z,16.2
2022-10-23T07:12:21.451Z,17.5
2022-10-23T07:14:15.528Z,17
2022-10-23T07:16:18.034Z,17.1
2022-10-23T07:20:16.054Z,19.9
2022-10-23T07:22:22.097Z,19.7
2022-10-23T07:24:15.255Z,21.5
2022-10-23T07:26:15.956Z,18.6
2022-10-23T07:28:15.344Z,19.1
2022-10-23T07:30:19.818Z,21.9
2022-10-23T07:32:30.312Z,19.8
2022-10-23T07:34:16.164Z,14.5
2022-10-23T07:36:16.097Z,12.8
2022-10-23T07:38:18.647Z,13.1
2022-10-23T07:40:17.588Z,13
2022-10-23T07:42:15.802Z,15.4
2022-10-23T07:44:15.815Z,14.8
2022-10-23T07:46:16.198Z,17.9
2022-10-23T07:48:31.180Z,15.4
2022-10-23T07:50:16.216Z,13
2022-10-23T07:52:35.109Z,12.6
2022-10-23T07:54:33.945Z,12.3
2022-10-23T07:56:35.137Z,11.8
2022-10-23T07:58:18.467Z,12.3
2022-10-23T08:00:20.716Z,12.5
2022-10-23T08:02:16.874Z,12.5
2022-10-23T08:04:22.820Z,13.9
2022-10-23T08:06:16.820Z,12.8
2022-10-23T08:08:20.480Z,12.6
2022-10-23T08:10:17.335Z,12.5
2022-10-23T08:12:17.266Z,12.4
2022-10-23T08:14:17.038Z,13.3
2022-10-23T08:16:32.623Z,12.5
2022-10-23T08:18:18.586Z,12.8
2022-10-23T08:20:18.193Z,12.2
2022-10-23T08:22:17.035Z,13.3
2022-10-23T08:24:18.518Z,12.8
2022-10-23T08:26:16.919Z,12.6
2022-10-23T08:28:24.553Z,12.8
2022-10-23T08:30:17.280Z,13.3
2022-10-23T08:32:33.040Z,12.6
2022-10-23T08:34:18.987Z,12.2
2022-10-23T08:36:19.850Z,12.7
2022-10-23T08:38:18.071Z,13.6
2022-10-23T08:40:36.576Z,12.2
2022-10-23T08:42:21.512Z,12.3
2022-10-23T08:44:23.220Z,12.4
2022-10-23T08:46:36.871Z,13
2022-10-23T08:48:39.260Z,12.8
2022-10-23T08:50:25.252Z,12.8
2022-10-23T08:52:23.658Z,13
2022-10-23T08:54:22.531Z,12.7
2022-10-23T08:56:23.683Z,12.5
2022-10-23T08:58:23.637Z,12.4
2022-10-23T09:00:18.695Z,12.6
2022-10-23T09:02:23.789Z,12.9
2022-10-23T09:04:18.408Z,12.5
2022-10-23T09:06:30.263Z,12.7
2022-10-23T09:08:28.333Z,12.3
2022-10-23T09:10:33.872Z,13.4
2022-10-23T09:12:22.276Z,12.9
2022-10-23T09:14:39.355Z,12.4
2022-10-23T09:16:32.928Z,12.8
2022-10-23T09:18:18.986Z,12.3
2022-10-23T09:20:21.773Z,11.9
2022-10-23T09:22:19.602Z,11.4
2022-10-23T09:24:21.917Z,11.4
2022-10-23T09:26:19.551Z,11.9
2022-10-23T09:28:22.197Z,12.3
2022-10-23T09:30:35.641Z,11.8
2022-10-23T09:32:31.362Z,12
2022-10-23T09:34:22.132Z,11.6
2022-10-23T09:36:22.174Z,11.9
2022-10-23T09:38:27.780Z,11.7
2022-10-23T09:40:28.664Z,12.2
2022-10-23T09:42:25.080Z,11.7
2022-10-23T09:44:23.088Z,12.2
2022-10-23T09:46:20.905Z,11.9
2022-10-23T09:48:20.672Z,13.4
2022-10-23T09:50:20.972Z,15
2022-10-23T09:52:25.846Z,16.6
2022-10-23T09:54:22.389Z,17.8
2022-10-23T09:56:26.965Z,20.3
2022-10-23T09:58:32.056Z,17.4
2022-10-23T10:00:23.818Z,15.1
2022-10-23T10:02:49.158Z,15.8
2022-10-23T10:04:31.827Z,15.7
2022-10-23T10:06:24.136Z,15.1
2022-10-23T10:08:29.154Z,15.7
2022-10-23T10:10:22.818Z,14.9
2022-10-23T10:12:39.070Z,14.8
2022-10-23T10:14:42.566Z,16.4
2022-10-23T10:16:31.799Z,15.2
2022-10-23T10:18:31.040Z,16.3
2022-10-23T10:20:37.523Z,15.4
2022-10-23T10:22:32.552Z,17.5
2022-10-23T10:24:29.489Z,16.3
2022-10-23T10:26:34.050Z,15.6
2022-10-23T10:28:37.824Z,16.1
2022-10-23T10:30:24.310Z,16.5
2022-10-23T10:32:35.158Z,17.1
2022-10-23T10:34:29.613Z,16.2
2022-10-23T10:36:40.014Z,17.3
2022-10-23T10:38:41.941Z,16.8
2022-10-23T10:40:27.279Z,16.7
2022-10-23T10:42:38.995Z,16.7
2022-10-23T10:44:37.406Z,16.1
2022-10-23T10:46:29.597Z,16.2
2022-10-23T10:48:54.853Z,16.1
2022-10-23T10:50:44.847Z,16.3
2022-10-23T10:52:32.552Z,16.4
2022-10-23T10:54:38.570Z,16.5
2022-10-23T10:56:27.355Z,16.6
2022-10-23T10:58:36.146Z,16.2
2022-10-23T11:00:23.644Z,16.4
2022-10-23T11:02:27.897Z,16.8
2022-10-23T11:04:33.202Z,16.5
2022-10-23T11:06:28.855Z,16.4
2022-10-23T11:08:44.411Z,17.5
2022-10-23T11:10:24.063Z,17
2022-10-23T11:12:26.902Z,16.4
2022-10-23T11:14:26.141Z,17.3
2022-10-23T11:16:27.868Z,16.9
2022-10-23T11:18:27.641Z,16.7
2022-10-23T11:20:40.716Z,17.2
2022-10-23T11:22:31.446Z,16.6
2022-10-23T11:24:50.061Z,18.4
2022-10-23T11:26:38.881Z,17.7
2022-10-23T11:28:41.701Z,18
2022-10-23T11:30:28.683Z,17.1
2022-10-23T11:32:40.753Z,17.2
2022-10-23T11:34:47.527Z,17.4
2022-10-23T11:36:42.317Z,16.4
2022-10-23T11:38:29.008Z,16.3
2022-10-23T11:40:25.722Z,15.9
2022-10-23T11:42:33.324Z,15
2022-10-23T11:44:37.781Z,15.9
2022-10-23T11:46:35.187Z,17
2022-10-23T11:48:36.702Z,15.2
2022-10-23T11:50:29.269Z,15.1
2022-10-23T11:52:25.389Z,14.8
2022-10-23T11:54:25.451Z,15.4
2022-10-23T11:56:27.011Z,15.4
2022-10-23T11:58:27.962Z,15.3
2022-10-23T12:00:29.870Z,14.8
2022-10-23T12:02:31.158Z,14.8
2022-10-23T12:04:37.028Z,14.5
2022-10-23T12:06:28.899Z,15.1
2022-10-23T12:08:28.807Z,14.5
2022-10-23T12:10:30.067Z,14.7
2022-10-23T12:12:29.692Z,14.1
2022-10-23T12:14:29.110Z,13.8
2022-10-23T12:16:35.062Z,15
2022-10-23T12:18:26.393Z,14
2022-10-23T12:20:35.261Z,14
2022-10-23T12:22:37.926Z,14.3
2022-10-23T12:24:39.439Z,14.9
2022-10-23T12:26:41.623Z,15.3
2022-10-23T12:28:34.327Z,14.3
2022-10-23T12:30:33.132Z,14.6
2022-10-23T12:32:40.634Z,13.6
2022-10-23T12:34:40.130Z,13.9
2022-10-23T12:36:42.816Z,13.9
2022-10-23T12:38:32.505Z,13.7
2022-10-23T12:40:27.574Z,13.8
2022-10-23T12:42:28.961Z,13.9
2022-10-23T12:44:29.397Z,14.5
2022-10-23T12:46:32.577Z,13.5
2022-10-23T12:48:27.749Z,13.7
2022-10-23T12:50:29.903Z,13.4
2022-10-23T12:52:27.666Z,14.2
2022-10-23T12:54:30.822Z,14.8
2022-10-23T12:56:35.354Z,13.6
2022-10-23T12:58:32.056Z,13.5
2022-10-23T13:00:28.588Z,13.5
2022-10-23T13:02:30.219Z,13.4
2022-10-23T13:04:31.451Z,14.2
2022-10-23T13:06:28.634Z,14.4
2022-10-23T13:08:48.957Z,12.9
2022-10-23T13:10:34.553Z,14.7
2022-10-23T13:12:31.824Z,13.9
2022-10-23T13:14:32.479Z,13.2
2022-10-23T13:16:28.700Z,14.9
2022-10-23T13:18:38.992Z,14.2
2022-10-23T13:20:30.914Z,13.8
2022-10-23T13:22:28.927Z,13.5
2022-10-23T13:24:30.310Z,13.9
2022-10-23T13:26:32.645Z,14
2022-10-23T13:28:32.326Z,14.8
2022-10-23T13:30:31.820Z,14.3
2022-10-23T13:32:29.832Z,14.8
2022-10-23T13:34:30.741Z,14.9
2022-10-23T13:36:33.966Z,14.1
2022-10-23T13:38:31.045Z,15.1
2022-10-23T13:40:29.602Z,14.4
2022-10-23T13:42:29.841Z,15.3
2022-10-23T13:44:29.755Z,16.4
2022-10-23T13:46:29.931Z,16.5
2022-10-23T13:48:30.031Z,17.5
2022-10-23T13:50:29.995Z,16.3
2022-10-23T13:52:30.637Z,16.5
2022-10-23T13:54:30.249Z,17.1
2022-10-23T13:56:30.247Z,17.7
2022-10-23T13:58:30.521Z,17.8
2022-10-23T14:00:30.337Z,18
2022-10-23T14:02:30.560Z,17
2022-10-23T14:04:30.483Z,18
2022-10-23T14:06:30.907Z,17.5
2022-10-23T14:08:30.722Z,18.2
2022-10-23T14:10:30.656Z,18.3
2022-10-23T14:12:30.829Z,17.8
2022-10-23T14:14:30.743Z,19.2
2022-10-23T14:16:30.830Z,17.8
2022-10-23T14:18:30.940Z,19.1
2022-10-23T14:20:31.041Z,18.5
2022-10-23T14:22:31.061Z,18.9
2022-10-23T14:24:31.047Z,19
2022-10-23T14:26:31.119Z,18.4
2022-10-23T14:28:31.928Z,18.3
2022-10-23T14:30:31.422Z,19
2022-10-23T14:32:31.322Z,18.4
2022-10-23T14:34:31.470Z,19.2
2022-10-23T14:36:38.839Z,19
2022-10-23T14:38:31.771Z,19.3
2022-10-23T14:40:31.552Z,20.7
2022-10-23T14:42:33.855Z,19.6
2022-10-23T14:44:31.750Z,18.6
2022-10-23T14:46:31.826Z,19.7
2022-10-23T14:48:31.805Z,20.1
2022-10-23T14:50:34.379Z,18.9
2022-10-23T14:52:31.959Z,19
2022-10-23T14:54:31.923Z,20.1
2022-10-23T14:56:35.592Z,19.2
2022-10-23T14:58:32.369Z,19.1
2022-10-23T15:00:32.661Z,18.8
2022-10-23T15:02:32.352Z,19.9
2022-10-23T15:04:32.291Z,19.3
2022-10-23T15:06:33.062Z,19.2
2022-10-23T15:08:33.023Z,19.4
2022-10-23T15:10:32.490Z,19.8
2022-10-23T15:12:32.722Z,20
2022-10-23T15:14:32.896Z,18.9
2022-10-23T15:16:32.967Z,20.5
2022-10-23T15:18:33.506Z,19.1
2022-10-23T15:20:32.878Z,19.5
2022-10-23T15:22:32.770Z,19.1
2022-10-23T15:24:32.851Z,20.8
2022-10-23T15:26:32.967Z,19.8
2022-10-23T15:28:33.564Z,20
2022-10-23T15:30:32.968Z,19.7
2022-10-23T15:32:32.922Z,20.2
2022-10-23T15:34:33.161Z,19.3
2022-10-23T15:36:33.510Z,20.2
2022-10-23T15:38:33.124Z,19.8
2022-10-23T15:40:33.116Z,19.9
2022-10-23T15:42:33.166Z,19.5
2022-10-23T15:44:33.853Z,20.4
2022-10-23T15:46:34.743Z,19.4
2022-10-23T15:48:33.353Z,19.2
2022-10-23T15:50:34.510Z,19.6
2022-10-23T15:52:33.471Z,20.8
2022-10-23T15:54:33.476Z,19.6
2022-10-23T15:56:34.396Z,20
2022-10-23T15:58:33.804Z,20.1
2022-10-23T16:02:34.015Z,20
2022-10-23T16:04:33.728Z,20
2022-10-23T16:06:33.878Z,19.2
2022-10-23T16:08:34.519Z,19.8
2022-10-23T16:10:38.573Z,19.8
2022-10-23T16:12:34.013Z,20.1
2022-10-23T16:14:33.882Z,19.4
2022-10-23T16:16:34.313Z,18.6
2022-10-23T16:18:34.006Z,19.4
2022-10-23T16:20:34.060Z,18.6
2022-10-23T16:22:34.216Z,18.2
2022-10-23T16:24:34.261Z,17.6
2022-10-23T16:26:34.860Z,18.4
2022-10-23T16:28:34.205Z,17.6
2022-10-23T16:30:40.181Z,17.6
2022-10-23T16:32:34.448Z,17.9
2022-10-23T16:34:34.284Z,17.3
2022-10-23T16:36:43.477Z,17.2
2022-10-23T16:38:34.617Z,16.4
2022-10-23T16:40:49.442Z,17.2
2022-10-23T16:42:46.475Z,17.1
2022-10-23T16:44:37.292Z,16.6
2022-10-23T16:46:34.735Z,16.8
2022-10-23T16:48:35.087Z,16
2022-10-23T16:52:34.931Z,15.3
2022-10-23T16:54:35.027Z,15.8
2022-10-23T16:56:35.050Z,15.8
2022-10-23T16:58:35.981Z,15.4
2022-10-23T17:00:35.319Z,15.3
2022-10-23T17:02:36.634Z,15.3
2022-10-23T17:04:35.679Z,14.8
2022-10-23T17:06:35.979Z,15.3
2022-10-23T17:08:35.841Z,14.9
2022-10-23T17:10:35.531Z,14.9
2022-10-23T17:12:35.786Z,15.1
2022-10-23T17:14:35.607Z,15.1
2022-10-23T17:16:39.393Z,14.4
2022-10-23T17:18:39.891Z,14.6
2022-10-23T17:20:35.724Z,15.5
2022-10-23T17:22:36.102Z,15
2022-10-23T17:24:36.096Z,14.1
2022-10-23T17:26:36.326Z,14.9
2022-10-23T17:28:36.228Z,15.2
2022-10-23T17:30:37.352Z,14.6
2022-10-23T17:32:36.281Z,14.2
2022-10-23T17:34:36.212Z,13.5
2022-10-23T17:36:38.967Z,14
2022-10-23T17:38:36.940Z,14.1
2022-10-23T17:40:36.971Z,14.8
2022-10-23T17:42:36.494Z,14.8
2022-10-23T17:44:36.542Z,13.1
2022-10-23T17:46:36.698Z,14.3
2022-10-23T17:48:36.766Z,14
2022-10-23T17:50:36.689Z,13.4
2022-10-23T17:52:37.429Z,14.4
2022-10-23T17:54:36.741Z,14
2022-10-23T17:56:37.116Z,14.4
2022-10-23T17:58:37.463Z,13.3
2022-10-23T18:00:37.499Z,13.7
2022-10-23T18:02:37.191Z,14.3
2022-10-23T18:04:37.222Z,13
2022-10-23T18:06:42.805Z,13
2022-10-23T18:08:38.152Z,12.4
2022-10-23T18:10:37.598Z,11.8
2022-10-23T18:12:37.459Z,12.4
2022-10-23T18:14:37.809Z,12
2022-10-23T18:16:38.118Z,11.5
2022-10-23T18:18:38.642Z,11.3
2022-10-23T18:20:39.434Z,11.6
2022-10-23T18:22:37.850Z,12.5
2022-10-23T18:24:37.855Z,11.6
2022-10-23T18:26:40.303Z,11.7
2022-10-23T18:28:37.952Z,11.6
2022-10-23T18:32:38.127Z,11.1
2022-10-23T18:34:38.230Z,11
2022-10-23T18:36:39.423Z,10.9
2022-10-23T18:38:38.330Z,11.2
2022-10-23T18:40:40.110Z,10.7
2022-10-23T18:42:38.481Z,11.2
2022-10-23T18:44:38.780Z,11.2
2022-10-23T18:46:38.735Z,11.2
2022-10-23T18:48:39.118Z,10.9
2022-10-23T18:50:38.899Z,11.8
2022-10-23T18:52:39.057Z,11.2
2022-10-23T18:54:38.937Z,10.9
2022-10-23T18:56:39.636Z,11.1
2022-10-23T18:58:39.061Z,10.7
2022-10-23T19:00:40.083Z,11
2022-10-23T19:02:39.553Z,10.6
2022-10-23T19:04:39.227Z,11.1
2022-10-23T19:06:39.461Z,11.5
2022-10-23T19:08:41.281Z,10.6
2022-10-23T19:10:41.619Z,11.3
2022-10-23T19:12:39.553Z,11.1
2022-10-23T19:14:39.731Z,10.8
2022-10-23T19:16:43.565Z,11.4
2022-10-23T19:18:42.745Z,11.1
2022-10-23T19:20:41.787Z,11
2022-10-23T19:22:43.064Z,11.2
2022-10-23T19:24:43.205Z,11.2
2022-10-23T19:26:41.919Z,10.7
2022-10-23T19:28:43.461Z,10.8
2022-10-23T19:30:40.295Z,11.4
2022-10-23T19:32:41.225Z,10.8
2022-10-23T19:34:40.463Z,11.3
2022-10-23T19:36:40.415Z,10.7
2022-10-23T19:38:40.531Z,11.6
2022-10-23T19:40:40.306Z,11.8
2022-10-23T19:42:41.827Z,11
2022-10-23T19:44:40.454Z,11.4
2022-10-23T19:46:40.540Z,11.9
2022-10-23T19:48:40.605Z,12.2
2022-10-23T19:50:41.534Z,12.4
2022-10-23T19:52:40.757Z,12.7
2022-10-23T19:54:41.011Z,12.6
2022-10-23T19:56:41.487Z,13.8
2022-10-23T19:58:41.177Z,13.1
2022-10-23T20:00:41.281Z,12.7
2022-10-23T20:02:41.072Z,12.5
2022-10-23T20:04:41.363Z,12.7
2022-10-23T20:06:41.288Z,13.3
2022-10-23T20:08:41.574Z,13.5
2022-10-23T20:10:42.919Z,13.3
2022-10-23T20:12:47.397Z,13.6
2022-10-23T20:14:41.518Z,13.9
2022-10-23T20:16:44.242Z,13.4
2022-10-23T20:18:41.603Z,13.7
2022-10-23T20:20:42.134Z,13.6
2022-10-23T20:22:44.025Z,14
2022-10-23T20:24:42.196Z,14.2
2022-10-23T20:26:43.950Z,13.1
2022-10-23T20:28:42.662Z,13.8
2022-10-23T20:30:42.400Z,14.6
2022-10-23T20:32:42.419Z,14.1
2022-10-23T20:34:42.578Z,14.8
2022-10-23T20:36:46.630Z,14.9
2022-10-23T20:38:42.237Z,14.8
2022-10-23T20:40:42.460Z,14.3
2022-10-23T20:42:42.428Z,14.3
2022-10-23T20:44:42.459Z,15
2022-10-23T20:46:42.608Z,14.9
2022-10-23T20:48:44.012Z,15.1
2022-10-23T20:50:42.639Z,14.7
2022-10-23T20:52:42.770Z,15
2022-10-23T20:54:42.999Z,14.5
2022-10-23T20:56:42.883Z,14.9
2022-10-23T20:58:43.482Z,15.5
2022-10-23T21:00:43.169Z,14.6
2022-10-23T21:02:45.965Z,15.3
2022-10-23T21:04:43.412Z,15
2022-10-23T21:07:04.451Z,15.1
2022-10-23T21:08:43.614Z,15.6
2022-10-23T21:10:45.384Z,14.5
2022-10-23T21:12:43.671Z,14.8
2022-10-23T21:14:43.587Z,14.5
2022-10-23T21:16:43.522Z,15.4
2022-10-23T21:18:46.288Z,15.5
2022-10-23T21:20:44.643Z,14.5
2022-10-23T21:22:44.063Z,15.4
2022-10-23T21:24:43.752Z,14.7
2022-10-23T21:26:44.762Z,16.2
2022-10-23T21:28:50.809Z,14.9
2022-10-23T21:30:43.918Z,14.7
2022-10-23T21:32:44.005Z,15
2022-10-23T21:34:44.221Z,15.1
2022-10-23T21:37:10.710Z,15.3
2022-10-23T21:38:45.272Z,15.2
2022-10-23T21:40:44.254Z,14.3
2022-10-23T21:42:44.313Z,14.4
2022-10-23T21:44:44.621Z,15.4
2022-10-23T21:46:44.482Z,14.7
2022-10-23T21:48:44.870Z,14.7
2022-10-23T21:50:44.643Z,14.2
2022-10-23T21:52:45.068Z,12.4
2022-10-23T21:54:44.722Z,12.8
2022-10-23T21:56:46.731Z,11.3
2022-10-23T21:58:44.794Z,10.8
2022-10-23T22:00:44.993Z,11
2022-10-23T22:02:45.308Z,11
2022-10-23T22:04:45.073Z,11.8
2022-10-23T22:06:46.791Z,11.9
2022-10-23T22:08:45.212Z,12.8
2022-10-23T22:10:45.276Z,13.3
2022-10-23T22:12:45.333Z,13.2
2022-10-23T22:14:45.816Z,12.7
2022-10-23T22:16:45.860Z,13.4
2022-10-23T22:18:45.953Z,13.3
2022-10-23T22:20:45.620Z,13.6
2022-10-23T22:22:45.796Z,12.6
2022-10-23T22:24:45.726Z,12.9
2022-10-23T22:26:47.896Z,13.3
2022-10-23T22:28:45.793Z,12.9
2022-10-23T22:30:45.838Z,13.2
2022-10-23T22:32:46.375Z,13.1
2022-10-23T22:34:53.085Z,12.2
2022-10-23T22:36:46.093Z,12.6
2022-10-23T22:38:46.667Z,13.1
2022-10-23T22:40:46.849Z,13.1
2022-10-23T22:42:46.610Z,12.7
2022-10-23T22:44:46.289Z,13
2022-10-23T22:46:46.463Z,12.9
2022-10-23T22:48:46.501Z,13.1
2022-10-23T22:50:46.493Z,12.8
2022-10-23T22:52:46.930Z,12.6
2022-10-23T22:54:47.585Z,13.8
2022-10-23T22:56:46.913Z,13.2
2022-10-23T22:58:48.230Z,13.8
2022-10-23T23:00:47.550Z,14
2022-10-23T23:02:47.352Z,13.9
2022-10-23T23:04:47.237Z,14.1
2022-10-23T23:06:47.273Z,14.4
2022-10-23T23:08:48.135Z,14.7
2022-10-23T23:10:51.879Z,13.8
2022-10-23T23:12:49.868Z,14.1
2022-10-23T23:14:47.564Z,14.8
2022-10-23T23:16:47.460Z,14.5
2022-10-23T23:18:47.710Z,14.3
2022-10-23T23:20:47.928Z,14.8
2022-10-23T23:22:47.641Z,14.7
2022-10-23T23:24:47.841Z,15.1
2022-10-23T23:26:47.772Z,15.2
2022-10-23T23:28:50.004Z,15.3
2022-10-23T23:30:48.350Z,15.6
2022-10-23T23:32:47.976Z,15.5
2022-10-23T23:34:48.365Z,15.6
2022-10-23T23:36:47.989Z,15.4
2022-10-23T23:38:48.083Z,15.1
2022-10-23T23:40:50.541Z,16.4
2022-10-23T23:42:48.249Z,15.9
2022-10-23T23:44:55.999Z,16.5
2022-10-23T23:46:48.329Z,16.5
2022-10-23T23:48:48.406Z,16.4
2022-10-23T23:50:48.533Z,16.3
2022-10-23T23:52:48.572Z,16.7
2022-10-23T23:54:48.729Z,16.3
2022-10-23T23:56:48.593Z,16.3
2022-10-23T23:58:48.977Z,15.6
